createdAt,value
2017-05-09T19:13:45.220Z,7.42
2017-05-09T19:16:11.998Z,6.37
2017-05-09T19:18:38.605Z,7.13
2017-05-09T19:21:07.889Z,6.72
2017-05-09T19:23:34.974Z,8.60
2017-05-09T19:26:02.071Z,7.17
2017-05-09T19:28:29.725Z,8.55
2017-05-09T19:30:56.985Z,8.07
2017-05-09T19:33:24.435Z,7.90
2017-05-09T19:35:52.551Z,7.53
2017-05-09T19:38:19.925Z,8.60
2017-05-09T19:40:47.088Z,9.60
2017-05-09T19:43:13.685Z,8.98
2017-05-09T19:45:42.052Z,8.65
2017-05-09T19:48:08.653Z,8.47
2017-05-09T19:50:35.253Z,9.40
2017-05-09T19:53:01.907Z,8.42
2017-05-09T19:55:28.488Z,8.03
2017-05-09T19:57:55.110Z,8.58
2017-05-09T20:00:22.945Z,9.10
2017-05-09T20:02:49.550Z,8.80
2017-05-09T20:05:16.904Z,8.77
2017-05-09T20:07:43.537Z,9.67
2017-05-09T20:10:10.148Z,8.70
2017-05-09T20:12:36.751Z,8.58
2017-05-09T20:15:03.433Z,8.05
2017-05-09T20:17:30.058Z,9.40
2017-05-09T20:19:56.651Z,8.80
2017-05-09T20:22:30.641Z,8.92
2017-05-09T20:24:57.254Z,8.75
2017-05-09T20:27:23.855Z,7.65
2017-05-09T20:29:50.467Z,8.92
2017-05-09T20:32:17.093Z,7.95
2017-05-09T20:34:43.729Z,8.33
2017-05-09T20:37:10.804Z,8.42
2017-05-09T20:39:38.241Z,9.73
2017-05-09T20:42:04.904Z,9.52
2017-05-09T20:44:39.134Z,9.52
2017-05-09T20:47:28.773Z,9.95
2017-05-09T20:49:55.640Z,9.95
2017-05-09T20:52:22.312Z,10.43
2017-05-09T20:54:48.938Z,9.65
2017-05-09T20:57:15.613Z,9.43
2017-05-09T20:59:42.246Z,10.88
2017-05-09T21:02:09.609Z,10.08
2017-05-09T21:04:43.585Z,10.20
2017-05-09T21:07:10.302Z,11.20
2017-05-09T21:09:36.933Z,11.38
2017-05-09T21:12:03.589Z,11.52
2017-05-09T21:14:30.227Z,12.67
2017-05-09T21:16:56.903Z,12.10
2017-05-09T21:19:23.614Z,12.58
2017-05-09T21:21:50.342Z,12.32
2017-05-09T21:24:17.165Z,13.35
2017-05-09T21:26:51.917Z,14.40
2017-05-09T21:29:21.087Z,14.23
2017-05-09T21:34:24.957Z,13.82
2017-05-09T21:36:51.705Z,15.30
2017-05-09T21:39:18.411Z,12.73
2017-05-09T21:44:29.376Z,14.15
2017-05-09T21:46:56.293Z,14.45
2017-05-09T21:49:23.023Z,14.15
2017-05-09T21:51:49.703Z,13.68
2017-05-09T21:54:16.465Z,14.75
2017-05-09T21:56:46.334Z,15.42
2017-05-09T21:59:14.889Z,14.90
2017-05-09T22:01:43.270Z,13.90
2017-05-09T22:04:22.447Z,15.53
2017-05-09T22:06:49.135Z,13.87
2017-05-09T22:09:17.214Z,13.70
2017-05-09T22:11:45.568Z,14.22
2017-05-09T22:14:14.097Z,13.50
2017-05-09T22:16:42.641Z,14.68
2017-05-09T22:19:11.125Z,13.75
2017-05-09T22:21:38.874Z,13.38
2017-05-09T22:24:18.102Z,14.78
2017-05-09T22:26:44.782Z,15.03
2017-05-09T22:29:12.393Z,13.85
2017-05-09T22:31:40.827Z,14.65
2017-05-09T22:34:09.354Z,15.43
2017-05-09T22:36:37.333Z,15.57
2017-05-09T22:39:05.329Z,14.60
2017-05-09T22:41:33.709Z,15.42
2017-05-09T22:44:02.142Z,15.07
2017-05-09T22:46:30.863Z,14.10
2017-05-09T22:48:58.617Z,14.02
2017-05-09T22:51:27.089Z,14.27
2017-05-09T22:53:55.292Z,13.73
2017-05-09T22:56:23.634Z,14.88
2017-05-09T22:58:52.102Z,14.58
2017-05-09T23:01:21.269Z,15.68
2017-05-09T23:03:49.652Z,15.27
2017-05-09T23:06:18.710Z,16.03
2017-05-09T23:08:46.990Z,15.33
2017-05-09T23:11:15.120Z,15.72
2017-05-09T23:13:43.898Z,14.55
2017-05-09T23:16:15.326Z,13.62
2017-05-09T23:18:43.830Z,14.17
2017-05-09T23:21:12.149Z,15.78
2017-05-09T23:23:40.629Z,15.50
2017-05-09T23:26:09.053Z,12.82
2017-05-09T23:28:37.203Z,13.67
2017-05-09T23:31:05.398Z,14.58
2017-05-09T23:33:33.487Z,13.75
2017-05-09T23:36:01.785Z,15.40
2017-05-09T23:41:10.045Z,14.12
2017-05-09T23:43:38.633Z,14.82
2017-05-09T23:46:07.203Z,14.10
2017-05-09T23:48:36.743Z,14.32
2017-05-09T23:51:03.530Z,14.37
2017-05-09T23:53:30.939Z,14.33
2017-05-09T23:55:57.635Z,12.98
2017-05-09T23:58:24.535Z,13.57
